Time;durP1;ratioP1;P1;durP2;ratioP2;P2;SDS_P1;SDS_P2;PMS_P1;PMS_P2;Temp;Humidity;BMP_temperature;BMP_pressure;BME280_temperature;BME280_humidity;BME280_pressure;Samples;Min_cycle;Max_cycle;Signal;HPM_P1;HPM_P2
2023/12/05 05:33:16;;;;;;;19.23;11.07;;;;;;;;;;7621360;19;20709;-71
2023/12/05 05:35:48;;;;;;;20.75;11.50;;;;;;;;;;7606704;19;20017;-68
2023/12/05 05:38:21;;;;;;;17.35;10.80;;;;;;;;;;7609399;19;20030;-69
2023/12/05 05:41:07;;;;;;;18.57;11.17;;;;;;;;;;7611645;19;20018;-69
2023/12/05 05:43:40;;;;;;;18.45;10.27;;;;;;;;;;7627694;19;20271;-70
2023/12/05 05:46:13;;;;;;;21.83;11.63;;;;;;;;;;7593501;19;20540;-69
2023/12/05 05:48:46;;;;;;;17.40;9.82;;;;;;;;;;7615288;19;20006;-69
2023/12/05 05:51:19;;;;;;;18.23;11.38;;;;;;;;;;7616242;19;20519;-69
2023/12/05 05:53:54;;;;;;;14.77;9.23;;;;;;;;;;7622765;19;20014;-69
2023/12/05 05:56:27;;;;;;;14.38;8.20;;;;;;;;;;7624372;19;20048;-69
2023/12/05 05:59:00;;;;;;;14.47;9.73;;;;;;;;;;7611733;19;20093;-69
2023/12/05 06:01:32;;;;;;;15.38;9.55;;;;;;;;;;7605406;19;20029;-68
2023/12/05 06:04:05;;;;;;;16.50;9.43;;;;;;;;;;7595534;19;20041;-69
2023/12/05 06:06:38;;;;;;;18.35;10.00;;;;;;;;;;7595768;19;20020;-69
2023/12/05 06:09:11;;;;;;;16.77;10.07;;;;;;;;;;7596888;19;20025;-69
2023/12/05 06:11:44;;;;;;;17.08;9.13;;;;;;;;;;7585761;19;20045;-69
2023/12/05 06:14:17;;;;;;;16.73;7.65;;;;;;;;;;7584551;19;20817;-70
2023/12/05 06:16:50;;;;;;;16.52;10.55;;;;;;;;;;7610947;19;20018;-70
2023/12/05 06:19:22;;;;;;;15.07;8.50;;;;;;;;;;7585519;19;21008;-68
2023/12/05 06:21:55;;;;;;;18.47;9.00;;;;;;;;;;7608190;19;20022;-69
2023/12/05 06:24:27;;;;;;;15.97;7.83;;;;;;;;;;7599420;19;20101;-70
2023/12/05 06:27:00;;;;;;;11.27;6.70;;;;;;;;;;7592839;19;20014;-69
2023/12/05 06:29:33;;;;;;;12.67;6.53;;;;;;;;;;7589579;19;20038;-70
2023/12/05 06:32:06;;;;;;;10.77;5.85;;;;;;;;;;7593264;19;20056;-70
2023/12/05 06:34:38;;;;;;;11.37;6.70;;;;;;;;;;7591976;19;20795;-69
2023/12/05 06:37:11;;;;;;;10.05;6.05;;;;;;;;;;7612971;19;20299;-70
2023/12/05 06:39:44;;;;;;;9.50;5.53;;;;;;;;;;7620941;19;20035;-71
2023/12/05 06:42:17;;;;;;;8.52;5.28;;;;;;;;;;7621434;19;21954;-70
2023/12/05 06:44:51;;;;;;;17.50;7.97;;;;;;;;;;7599212;19;20031;-69
2023/12/05 06:47:23;;;;;;;15.63;7.05;;;;;;;;;;7589466;19;20097;-69
2023/12/05 06:50:01;;;;;;;10.25;6.05;;;;;;;;;;7609530;19;20121;-70
2023/12/05 06:52:34;;;;;;;11.82;5.85;;;;;;;;;;7604111;19;20034;-69
2023/12/05 06:55:09;;;;;;;16.20;6.80;;;;;;;;;;7564799;19;20018;-71
2023/12/05 06:57:42;;;;;;;11.25;6.35;;;;;;;;;;7592278;19;20019;-71
2023/12/05 07:00:15;;;;;;;10.13;5.97;;;;;;;;;;7603295;19;20089;-69
2023/12/05 07:02:49;;;;;;;10.43;6.45;;;;;;;;;;7597492;19;20942;-71
2023/12/05 07:05:22;;;;;;;;;;;;;;;;;;7588730;19;20871;-70
2023/12/05 07:07:56;;;;;;;11.20;5.93;;;;;;;;;;7594723;19;19953;-70
2023/12/05 07:10:29;;;;;;;9.65;5.55;;;;;;;;;;7609130;19;20015;-71
2023/12/05 07:13:02;;;;;;;20.63;8.38;;;;;;;;;;7596965;19;20022;-69
2023/12/05 07:15:34;;;;;;;17.80;6.97;;;;;;;;;;7581286;19;20018;-70
2023/12/05 07:18:08;;;;;;;10.27;6.18;;;;;;;;;;7586939;19;20026;-71
2023/12/05 07:20:41;;;;;;;17.50;6.35;;;;;;;;;;7590121;19;20014;-70
2023/12/05 07:23:15;;;;;;;10.85;5.95;;;;;;;;;;7601816;19;20752;-70
2023/12/05 07:25:49;;;;;;;10.57;5.45;;;;;;;;;;7595561;19;20547;-70
2023/12/05 07:28:22;;;;;;;11.80;5.95;;;;;;;;;;7594999;19;20021;-71
2023/12/05 07:30:54;;;;;;;11.00;5.90;;;;;;;;;;7603124;19;20015;-70
2023/12/05 07:33:27;;;;;;;17.33;7.80;;;;;;;;;;7590857;19;20011;-70
2023/12/05 07:36:03;;;;;;;12.63;6.43;;;;;;;;;;7593340;19;20267;-71
2023/12/05 07:38:36;;;;;;;16.48;6.30;;;;;;;;;;7594552;19;20025;-70
2023/12/05 07:41:18;;;;;;;14.23;6.27;;;;;;;;;;7591484;19;20029;-69
2023/12/05 07:43:51;;;;;;;18.17;8.02;;;;;;;;;;7592882;19;20018;-69
2023/12/05 07:46:24;;;;;;;13.35;7.75;;;;;;;;;;7581079;19;20015;-71
2023/12/05 07:48:56;;;;;;;14.32;7.68;;;;;;;;;;7592841;19;20015;-70
2023/12/05 07:51:30;;;;;;;10.75;6.57;;;;;;;;;;7593580;19;20010;-70
2023/12/05 07:54:05;;;;;;;14.82;7.22;;;;;;;;;;7594185;19;20488;-69
2023/12/05 07:56:37;;;;;;;16.52;6.75;;;;;;;;;;7575843;19;20023;-70
2023/12/05 07:59:10;;;;;;;13.65;6.85;;;;;;;;;;7580585;19;20475;-69
2023/12/05 08:01:45;;;;;;;14.77;6.20;;;;;;;;;;7589848;19;20026;-70
2023/12/05 08:04:18;;;;;;;12.73;5.88;;;;;;;;;;7572683;19;20504;-69
2023/12/05 08:06:52;;;;;;;9.00;5.82;;;;;;;;;;7576666;19;20014;-69
2023/12/05 08:09:25;;;;;;;14.88;6.72;;;;;;;;;;7556960;19;20018;-68
2023/12/05 08:11:58;;;;;;;17.13;7.88;;;;;;;;;;7592469;19;20024;-70
2023/12/05 08:14:31;;;;;;;12.52;7.05;;;;;;;;;;7596592;19;20528;-69
2023/12/05 08:17:04;;;;;;;11.90;7.03;;;;;;;;;;7598247;19;20018;-70
2023/12/05 08:19:37;;;;;;;;;;;;;;;;;;7588996;19;20046;-69
2023/12/05 08:22:09;;;;;;;13.15;7.05;;;;;;;;;;7597031;19;20341;-68
2023/12/05 08:24:42;;;;;;;12.03;6.20;;;;;;;;;;7601576;19;20956;-68
2023/12/05 08:27:15;;;;;;;14.20;7.60;;;;;;;;;;7597157;19;20036;-70
2023/12/05 08:29:48;;;;;;;12.35;8.20;;;;;;;;;;7601990;19;21106;-67
2023/12/05 08:32:20;;;;;;;12.33;7.57;;;;;;;;;;7592824;19;20015;-71
2023/12/05 08:34:53;;;;;;;12.57;6.57;;;;;;;;;;7566906;19;20310;-70
2023/12/05 08:37:27;;;;;;;14.55;8.50;;;;;;;;;;7576453;19;20050;-68
2023/12/05 14:21:37;;;;;;;20.98;9.15;;;;;;;;;;7583440;19;20347;-72
2023/12/05 14:24:10;;;;;;;20.48;10.80;;;;;;;;;;7619160;19;20018;-73
2023/12/05 14:26:43;;;;;;;27.60;14.70;;;;;;;;;;7586265;19;20147;-71
2023/12/05 14:29:17;;;;;;;23.38;14.25;;;;;;;;;;7604426;19;21327;-70
2023/12/05 14:31:50;;;;;;;23.77;16.10;;;;;;;;;;7586580;19;20537;-71
2023/12/05 14:34:23;;;;;;;25.92;14.25;;;;;;;;;;7601941;19;20017;-71
2023/12/05 14:36:56;;;;;;;21.65;12.68;;;;;;;;;;7607262;19;20746;-72
2023/12/05 14:39:31;;;;;;;;;;;;;;;;;;7618100;19;20026;-71
2023/12/05 14:42:03;;;;;;;20.23;10.20;;;;;;;;;;7610180;19;19918;-72
2023/12/05 14:44:37;;;;;;;15.85;9.80;;;;;;;;;;7606914;19;20018;-71
2023/12/05 14:47:10;;;;;;;19.00;10.00;;;;;;;;;;7618010;19;20326;-71
2023/12/05 14:49:43;;;;;;;24.88;11.32;;;;;;;;;;7620873;19;20014;-71
2023/12/05 14:52:16;;;;;;;21.92;10.85;;;;;;;;;;7602892;19;20089;-70
2023/12/05 14:54:49;;;;;;;23.40;12.27;;;;;;;;;;7620721;19;20830;-72
2023/12/05 14:57:21;;;;;;;21.88;12.00;;;;;;;;;;7610683;19;20057;-74
2023/12/05 14:59:57;;;;;;;24.27;12.00;;;;;;;;;;7599003;19;20090;-73
2023/12/05 15:02:30;;;;;;;21.02;11.30;;;;;;;;;;7599749;19;20134;-71
2023/12/05 15:05:02;;;;;;;21.83;13.07;;;;;;;;;;7595853;19;20048;-70
2023/12/05 15:07:35;;;;;;;21.50;14.20;;;;;;;;;;7601532;19;20045;-70
2023/12/05 15:10:08;;;;;;;25.00;12.70;;;;;;;;;;7608618;19;20151;-70
2023/12/05 15:12:41;;;;;;;;;;;;;;;;;;7596735;19;20282;-69
2023/12/05 15:15:17;;;;;;;14.32;8.48;;;;;;;;;;7599228;19;19921;-72
2023/12/05 15:17:51;;;;;;;15.43;8.38;;;;;;;;;;7593306;19;20033;-70
2023/12/05 15:20:25;;;;;;;12.60;7.90;;;;;;;;;;7609057;19;20033;-70
2023/12/05 15:22:58;;;;;;;14.60;8.48;;;;;;;;;;7570510;19;20014;-71
2023/12/05 15:25:31;;;;;;;17.80;10.70;;;;;;;;;;7617020;19;20070;-71
2023/12/05 15:28:04;;;;;;;19.57;11.63;;;;;;;;;;7604234;19;20116;-71
2023/12/05 15:30:37;;;;;;;19.30;11.02;;;;;;;;;;7604261;19;20307;-70
2023/12/05 15:33:10;;;;;;;20.23;10.05;;;;;;;;;;7558023;19;20018;-72
2023/12/05 15:35:43;;;;;;;26.13;13.53;;;;;;;;;;7552509;19;20010;-72
2023/12/05 15:38:16;;;;;;;30.83;15.83;;;;;;;;;;7564782;19;20892;-71
2023/12/05 15:40:48;;;;;;;37.92;17.13;;;;;;;;;;7554947;19;20023;-71
2023/12/05 15:43:23;;;;;;;36.30;15.73;;;;;;;;;;7563072;19;20030;-72
2023/12/05 15:45:55;;;;;;;19.67;12.47;;;;;;;;;;7572348;19;20018;-72
2023/12/05 15:48:29;;;;;;;23.47;12.23;;;;;;;;;;7588694;19;20010;-72
2023/12/05 15:51:17;;;;;;;17.48;10.73;;;;;;;;;;7581733;19;20014;-72
2023/12/05 15:53:50;;;;;;;29.30;14.43;;;;;;;;;;7585027;19;20052;-71
2023/12/05 15:56:24;;;;;;;17.42;11.95;;;;;;;;;;7585961;19;21669;-72
2023/12/05 15:58:57;;;;;;;21.60;11.85;;;;;;;;;;7564031;19;20860;-72
2023/12/05 16:02:27;;;;;;;23.17;12.23;;;;;;;;;;7452688;19;3063253;-74
2023/12/05 16:05:00;;;;;;;24.52;13.65;;;;;;;;;;7613339;19;21344;-72
2023/12/05 16:07:33;;;;;;;21.57;12.43;;;;;;;;;;7601858;19;20015;-73
2023/12/05 16:10:07;;;;;;;32.47;14.45;;;;;;;;;;7613803;19;20374;-72
2023/12/05 16:12:40;;;;;;;30.60;16.00;;;;;;;;;;7627013;19;20047;-72
2023/12/05 16:15:13;;;;;;;28.33;12.07;;;;;;;;;;7620967;19;20033;-72
2023/12/05 16:17:47;;;;;;;32.05;13.55;;;;;;;;;;7631264;19;20086;-72
2023/12/05 16:20:20;;;;;;;34.78;15.18;;;;;;;;;;7619722;19;20018;-73
2023/12/05 16:22:53;;;;;;;26.50;13.88;;;;;;;;;;7636515;19;20427;-73
2023/12/05 16:25:26;;;;;;;25.73;14.27;;;;;;;;;;7581033;19;20010;-72
2023/12/05 16:27:59;;;;;;;29.98;16.85;;;;;;;;;;7595713;19;20022;-73
2023/12/05 16:30:32;;;;;;;26.80;15.83;;;;;;;;;;7626014;19;20022;-71
2023/12/05 16:33:05;;;;;;;27.50;15.63;;;;;;;;;;7613728;19;20032;-71
2023/12/05 16:35:38;;;;;;;32.50;17.27;;;;;;;;;;7609909;19;20047;-74
2023/12/05 16:38:10;;;;;;;28.70;16.20;;;;;;;;;;7615772;19;20018;-72
2023/12/05 16:40:43;;;;;;;25.48;15.38;;;;;;;;;;7627418;19;20025;-73
2023/12/05 16:43:16;;;;;;;31.48;17.02;;;;;;;;;;7627280;19;21307;-73
2023/12/05 16:45:49;;;;;;;28.20;15.47;;;;;;;;;;7617818;19;21696;-73
2023/12/05 16:48:21;;;;;;;29.20;16.27;;;;;;;;;;7622356;19;21101;-74
2023/12/05 16:50:54;;;;;;;30.40;17.58;;;;;;;;;;7617040;19;20030;-74
2023/12/05 16:53:27;;;;;;;37.35;20.40;;;;;;;;;;7634591;19;20018;-73
2023/12/05 16:56:00;;;;;;;32.00;17.50;;;;;;;;;;7618578;19;20078;-73
2023/12/05 16:58:33;;;;;;;22.33;13.38;;;;;;;;;;7623226;19;20018;-74
2023/12/05 17:01:07;;;;;;;29.65;13.88;;;;;;;;;;7624175;19;22047;-71
2023/12/05 17:03:40;;;;;;;27.10;15.65;;;;;;;;;;7624531;19;21112;-71
2023/12/05 17:06:13;;;;;;;29.67;14.85;;;;;;;;;;7617947;19;20101;-71
2023/12/05 17:08:46;;;;;;;21.75;12.90;;;;;;;;;;7614343;19;20021;-70
2023/12/05 17:11:19;;;;;;;21.83;12.43;;;;;;;;;;7582275;19;22360;-74
2023/12/05 17:13:55;;;;;;;21.10;9.80;;;;;;;;;;7538200;19;21395;-72
2023/12/05 17:16:28;;;;;;;16.02;6.75;;;;;;;;;;7555461;19;20010;-71
2023/12/05 17:19:01;;;;;;;14.63;7.10;;;;;;;;;;7581780;19;20064;-71
2023/12/05 17:21:36;;;;;;;10.27;5.30;;;;;;;;;;7585040;19;20874;-71
2023/12/05 17:24:09;;;;;;;11.35;5.30;;;;;;;;;;7581901;19;20100;-72
2023/12/05 17:26:42;;;;;;;12.33;5.60;;;;;;;;;;7583509;19;20117;-70
2023/12/05 17:29:14;;;;;;;12.82;6.30;;;;;;;;;;7579908;19;25386;-71
2023/12/05 17:31:47;;;;;;;13.63;6.18;;;;;;;;;;7577282;19;20120;-71
2023/12/05 17:34:20;;;;;;;14.32;6.10;;;;;;;;;;7560640;19;20038;-71
2023/12/05 17:36:53;;;;;;;16.95;7.00;;;;;;;;;;7565110;19;21330;-70
2023/12/05 17:39:27;;;;;;;11.03;4.70;;;;;;;;;;7553311;19;20023;-72
2023/12/05 17:42:01;;;;;;;12.65;6.10;;;;;;;;;;7561988;19;20011;-73
2023/12/05 17:44:34;;;;;;;14.13;6.65;;;;;;;;;;7584351;19;20010;-72
2023/12/05 17:47:07;;;;;;;15.23;7.40;;;;;;;;;;7570386;19;20026;-71
2023/12/05 17:49:40;;;;;;;18.83;10.10;;;;;;;;;;7568800;19;20267;-72
2023/12/05 17:52:14;;;;;;;16.05;8.02;;;;;;;;;;7593619;19;20109;-71
2023/12/05 17:54:46;;;;;;;16.63;8.52;;;;;;;;;;7543314;19;20436;-71
2023/12/05 17:57:21;;;;;;;10.95;5.78;;;;;;;;;;7564311;19;20870;-72
2023/12/05 17:59:54;;;;;;;24.73;15.55;;;;;;;;;;7581505;19;21063;-71
2023/12/05 18:02:27;;;;;;;26.10;16.77;;;;;;;;;;7555764;19;20582;-71
2023/12/05 18:05:08;;;;;;;16.02;8.45;;;;;;;;;;7560156;19;20014;-71
2023/12/05 18:07:41;;;;;;;11.27;7.30;;;;;;;;;;7568450;19;20019;-72
2023/12/05 18:10:29;;;;;;;10.88;6.82;;;;;;;;;;7570859;19;20043;-72
2023/12/05 18:13:04;;;;;;;12.48;7.75;;;;;;;;;;7561375;19;20094;-71
2023/12/05 18:15:46;;;;;;;17.99;10.06;;;;;;;;;;7492219;19;10000574;-70
2023/12/05 18:18:18;;;;;;;22.65;10.70;;;;;;;;;;7062610;19;9999765;-70
2023/12/05 18:20:51;;;;;;;19.95;10.38;;;;;;;;;;7578989;19;20736;-71
2023/12/05 18:23:24;;;;;;;21.80;11.60;;;;;;;;;;7571297;19;20025;-70
2023/12/05 18:25:57;;;;;;;19.38;10.93;;;;;;;;;;7574783;19;20014;-71
2023/12/05 18:28:30;;;;;;;24.35;13.48;;;;;;;;;;7572991;19;20006;-71
2023/12/05 18:31:03;;;;;;;24.83;12.27;;;;;;;;;;7568159;19;20058;-72
2023/12/05 18:33:38;;;;;;;23.17;14.10;;;;;;;;;;7571645;19;21410;-72
2023/12/05 18:36:11;;;;;;;;;;;;;;;;;;7575386;19;20014;-70
2023/12/05 18:38:43;;;;;;;23.27;13.32;;;;;;;;;;7575260;19;19942;-72
2023/12/05 18:41:16;;;;;;;24.20;13.52;;;;;;;;;;7554942;19;20754;-72
2023/12/05 18:43:49;;;;;;;23.63;14.35;;;;;;;;;;7578217;19;20018;-73
2023/12/05 18:46:22;;;;;;;23.67;15.30;;;;;;;;;;7559842;19;20018;-72
2023/12/05 18:48:54;;;;;;;27.85;15.68;;;;;;;;;;7569715;19;20025;-72
2023/12/05 18:51:27;;;;;;;27.05;17.20;;;;;;;;;;7576526;19;20051;-73
2023/12/05 18:54:00;;;;;;;25.83;16.57;;;;;;;;;;7592227;19;20601;-72
2023/12/05 18:56:33;;;;;;;31.08;16.55;;;;;;;;;;7564912;19;20687;-72
2023/12/05 18:59:05;;;;;;;35.92;22.05;;;;;;;;;;7559165;19;21169;-73
2023/12/05 19:01:38;;;;;;;30.88;18.33;;;;;;;;;;7554274;19;20018;-70
2023/12/05 19:04:11;;;;;;;31.77;18.98;;;;;;;;;;7553276;19;20022;-71
2023/12/05 19:06:45;;;;;;;34.40;20.90;;;;;;;;;;7565658;19;20051;-71
2023/12/05 19:09:17;;;;;;;38.90;22.48;;;;;;;;;;7576223;19;20015;-71
2023/12/05 19:11:53;;;;;;;33.90;20.05;;;;;;;;;;7569716;19;20011;-71
2023/12/05 19:14:27;;;;;;;32.88;20.40;;;;;;;;;;7575952;19;20026;-72
2023/12/05 19:17:00;;;;;;;31.00;19.23;;;;;;;;;;7575626;19;20015;-71
2023/12/05 19:19:33;;;;;;;31.25;18.00;;;;;;;;;;7571990;19;21278;-72
2023/12/05 19:22:05;;;;;;;31.63;18.83;;;;;;;;;;7563601;19;20025;-71
2023/12/05 19:24:44;;;;;;;32.53;19.20;;;;;;;;;;7567530;19;20025;-72
2023/12/05 19:27:17;;;;;;;27.27;18.23;;;;;;;;;;7578591;19;20022;-73
2023/12/05 19:29:50;;;;;;;29.00;17.98;;;;;;;;;;7565044;19;20063;-73
2023/12/05 19:32:23;;;;;;;29.13;18.52;;;;;;;;;;7579648;19;20010;-70
2023/12/05 19:34:57;;;;;;;26.65;13.77;;;;;;;;;;7561236;19;20011;-70
2023/12/05 19:37:30;;;;;;;24.35;15.57;;;;;;;;;;7562325;19;20018;-70
2023/12/05 19:40:06;;;;;;;30.45;17.90;;;;;;;;;;7578179;19;20017;-71
2023/12/05 19:42:39;;;;;;;28.73;18.15;;;;;;;;;;7575344;19;20032;-73
2023/12/05 19:45:12;;;;;;;36.40;21.63;;;;;;;;;;7568269;19;20510;-73
2023/12/05 19:47:46;;;;;;;22.75;15.15;;;;;;;;;;7565939;19;20024;-73
2023/12/05 19:50:19;;;;;;;26.43;14.00;;;;;;;;;;7580663;19;20363;-73
2023/12/05 19:52:52;;;;;;;36.35;19.30;;;;;;;;;;7555860;19;20275;-71
2023/12/05 19:55:24;;;;;;;23.83;12.43;;;;;;;;;;7550511;19;20081;-73
2023/12/05 19:57:57;;;;;;;20.17;13.43;;;;;;;;;;7559017;19;20019;-72
2023/12/05 20:00:30;;;;;;;22.40;13.57;;;;;;;;;;7562760;19;20019;-72
2023/12/05 20:03:07;;;;;;;19.05;12.38;;;;;;;;;;7553872;19;20055;-71
2023/12/05 20:05:40;;;;;;;20.52;13.23;;;;;;;;;;7539678;19;20044;-71
2023/12/05 20:08:12;;;;;;;21.23;13.95;;;;;;;;;;7544845;19;20043;-71
2023/12/05 20:10:46;;;;;;;23.45;13.02;;;;;;;;;;7549468;19;20126;-72
2023/12/05 20:13:19;;;;;;;21.70;11.83;;;;;;;;;;7550120;19;20474;-71
